Time;durP1;ratioP1;P1;durP2;ratioP2;P2;SDS_P1;SDS_P2;PMS_P1;PMS_P2;Temp;Humidity;BMP_temperature;BMP_pressure;BME280_temperature;BME280_humidity;BME280_pressure;Samples;Min_cycle;Max_cycle;Signal;HPM_P1;HPM_P2
2022/01/26 00:06:23;;;;;;;91.10;46.00;;;;;;;3.58;89.13;101021.92;130128;1271;108470;-80
2022/01/26 00:09:29;;;;;;;41.60;23.80;;;;;;;3.54;88.85;101027.23;130045;1271;108512;-80
2022/01/26 00:12:34;;;;;;;39.60;23.00;;;;;;;3.45;88.80;101023.71;130400;1269;109068;-80
2022/01/26 00:15:39;;;;;;;38.10;22.30;;;;;;;3.42;89.12;101024.58;130439;1267;108804;-82
2022/01/26 00:18:45;;;;;;;28.10;16.30;;;;;;;3.44;89.18;101024.81;130444;1267;108577;-80
2022/01/26 00:21:52;;;;;;;47.60;29.70;;;;;;;3.39;88.85;101023.54;130422;1267;108765;-80
2022/01/26 00:25:19;;;;;;;33.50;19.10;;;;;;;3.37;89.04;101023.14;130518;1268;107284;-78
2022/01/26 00:28:46;;;;;;;45.10;26.90;;;;;;;3.33;88.96;101022.65;130344;1267;108806;-79
2022/01/26 00:38:46;;;;;;;30.60;18.10;;;;;;;3.28;88.85;101021.50;130356;1267;108755;-80
2022/01/26 00:41:55;;;;;;;30.60;20.50;;;;;;;3.34;88.93;101022.92;130378;1268;109734;-82
2022/01/26 00:45:01;;;;;;;30.40;17.80;;;;;;;3.38;88.77;101021.67;130441;1268;108797;-79
2022/01/26 00:48:09;;;;;;;34.10;21.50;;;;;;;3.40;88.81;101019.44;130521;1267;108897;-81
2022/01/26 00:51:17;;;;;;;23.30;13.30;;;;;;;3.43;88.62;101021.39;130861;1268;108902;-81
2022/01/26 00:54:22;;;;;;;26.60;15.20;;;;;;;3.46;88.49;101026.13;130820;1268;107149;-80
2022/01/26 00:57:28;;;;;;;24.60;15.20;;;;;;;3.44;88.30;101023.95;130717;1268;108817;-80
2022/01/26 01:00:33;;;;;;;31.70;18.60;;;;;;;3.38;88.43;101021.16;130399;1266;108724;-81
2022/01/26 01:03:43;;;;;;;23.60;12.90;;;;;;;3.37;88.42;101019.80;130472;1266;107886;-82
2022/01/26 01:06:53;;;;;;;41.20;26.90;;;;;;;3.38;88.47;101013.59;130564;1267;108073;-88
2022/01/26 01:09:59;;;;;;;44.60;32.70;;;;;;;3.42;88.50;101009.30;130579;1267;108747;-83
2022/01/26 01:13:08;;;;;;;49.70;35.20;;;;;;;3.48;88.40;101000.30;130612;1268;107458;-83
2022/01/26 01:16:17;;;;;;;47.20;35.90;;;;;;;3.52;88.03;100999.58;130556;1268;108320;-84
2022/01/26 01:19:33;;;;;;;29.30;21.10;;;;;;;3.52;88.09;100995.33;130508;1266;106904;-83
2022/01/26 01:22:55;;;;;;;20.60;13.10;;;;;;;3.47;87.83;100995.78;130591;1268;108224;-82
2022/01/26 01:29:28;;;;;;;14.80;8.80;;;;;;;3.28;87.94;100994.42;130283;1268;108668;-82
2022/01/26 01:32:39;;;;;;;24.70;16.50;;;;;;;3.24;88.11;100992.21;130456;1267;109717;-81
2022/01/26 01:35:46;;;;;;;29.90;20.80;;;;;;;3.29;88.30;100991.38;130662;1266;107388;-84
2022/01/26 01:38:54;;;;;;;14.90;8.90;;;;;;;3.33;88.13;100989.92;130606;1266;108835;-83
2022/01/26 01:42:00;;;;;;;43.80;31.50;;;;;;;3.31;87.82;100988.81;130440;1268;108765;-83
2022/01/26 01:45:08;;;;;;;27.80;17.90;;;;;;;3.28;87.89;100986.69;130611;1268;106788;-80
2022/01/26 01:48:17;;;;;;;19.80;10.60;;;;;;;3.25;87.89;100988.30;130514;1268;109750;-81
2022/01/26 01:51:28;;;;;;;16.50;9.20;;;;;;;3.21;87.85;100990.65;130532;1266;108701;-82
2022/01/26 01:54:38;;;;;;;15.90;8.40;;;;;;;3.18;87.90;100988.52;130513;1268;108655;-81
2022/01/26 01:57:43;;;;;;;28.20;17.10;;;;;;;3.21;88.08;100987.30;130469;1268;108691;-81
2022/01/26 02:00:48;;;;;;;41.10;22.70;;;;;;;3.25;87.90;100987.77;130553;1267;108836;-83
2022/01/26 02:03:54;;;;;;;14.40;8.50;;;;;;;3.25;87.71;100988.09;130496;1268;108865;-82
2022/01/26 02:07:00;;;;;;;12.10;7.60;;;;;;;3.15;87.26;100990.08;130531;1266;106747;-83
2022/01/26 02:10:06;;;;;;;12.60;6.90;;;;;;;3.02;87.68;100982.55;130599;1267;107794;-83
2022/01/26 02:13:19;;;;;;;12.50;6.80;;;;;;;2.96;87.79;100980.63;130661;1267;109182;-82
2022/01/26 02:16:29;;;;;;;16.30;8.70;;;;;;;2.87;87.80;100977.23;130505;1267;108769;-83
2022/01/26 02:20:00;;;;;;;12.50;6.40;;;;;;;2.89;88.11;100982.25;130696;1268;108879;-83
2022/01/26 02:50:33;;;;;;;14.60;8.30;;;;;;;2.88;88.05;100978.92;130504;1268;108857;-82
2022/01/26 02:53:50;;;;;;;14.30;7.60;;;;;;;2.87;88.21;100972.14;130530;1266;108877;-85
2022/01/26 02:57:09;;;;;;;12.20;6.60;;;;;;;2.89;88.18;100969.22;130641;1268;108678;-83
2022/01/26 03:00:19;;;;;;;13.50;7.60;;;;;;;2.93;88.18;100966.87;130645;1267;108849;-86
2022/01/26 03:03:29;;;;;;;13.70;8.20;;;;;;;2.98;88.23;100961.52;130674;1268;108726;-85
2022/01/26 03:06:41;;;;;;;15.60;8.60;;;;;;;2.99;88.07;100960.59;130707;1267;108617;-85
2022/01/26 03:09:52;;;;;;;14.30;8.70;;;;;;;2.95;87.89;100955.86;130731;1268;108776;-86
2022/01/26 03:13:06;;;;;;;15.50;8.90;;;;;;;2.91;88.11;100954.88;130655;1267;107709;-85
2022/01/26 03:16:15;;;;;;;15.40;8.00;;;;;;;2.90;88.10;100949.83;130490;1268;108946;-81
2022/01/26 03:19:25;;;;;;;13.00;7.80;;;;;;;2.92;87.97;100954.94;130696;1267;108748;-83
2022/01/26 03:29:37;;;;;;;66.10;30.90;;;;;;;2.99;87.99;100955.33;130476;1267;108690;-83
2022/01/26 03:33:09;;;;;;;20.20;10.10;;;;;;;3.04;88.01;100952.03;130493;1267;109743;-83
2022/01/26 03:36:14;;;;;;;297.40;152.00;;;;;;;2.97;87.70;100952.63;130650;1267;107222;-84
2022/01/26 03:39:22;;;;;;;26.20;14.00;;;;;;;2.93;87.80;100956.33;130644;1267;108765;-84
2022/01/26 03:42:28;;;;;;;37.50;19.20;;;;;;;2.93;87.83;100961.23;130689;1267;109751;-79
2022/01/26 03:45:33;;;;;;;142.70;72.60;;;;;;;3.02;88.08;100963.26;130551;1267;108843;-79
2022/01/26 03:48:38;;;;;;;49.60;26.30;;;;;;;3.10;88.03;100964.18;130554;1267;108769;-78
2022/01/26 03:51:44;;;;;;;40.70;23.10;;;;;;;3.13;87.82;100961.87;130947;1267;108703;-81
2022/01/26 03:54:49;;;;;;;60.90;31.10;;;;;;;3.15;87.78;100960.73;131038;1267;108757;-84
2022/01/26 03:57:55;;;;;;;38.20;22.30;;;;;;;3.15;87.60;100962.31;130649;1266;108827;-84
2022/01/26 04:01:00;;;;;;;27.80;16.20;;;;;;;3.10;87.74;100963.30;130664;1267;108690;-81
2022/01/26 04:04:06;;;;;;;19.80;11.80;;;;;;;3.05;87.64;100963.92;130636;1267;108738;-83
2022/01/26 04:07:12;;;;;;;85.30;43.90;;;;;;;2.99;87.49;100964.98;130538;1267;108598;-79
2022/01/26 04:10:27;;;;;;;32.40;18.00;;;;;;;2.96;87.81;100966.73;130362;1267;108695;-82
2022/01/26 04:13:33;;;;;;;19.70;11.10;;;;;;;2.97;87.89;100964.92;130508;1267;107145;-80
2022/01/26 04:16:40;;;;;;;40.40;23.20;;;;;;;2.93;87.51;100971.80;130484;1267;108759;-80
2022/01/26 04:19:53;;;;;;;71.90;39.60;;;;;;;2.88;87.85;100970.67;130582;1267;108736;-81
2022/01/26 04:23:09;;;;;;;22.90;13.00;;;;;;;2.89;87.83;100967.09;130647;1265;107044;-82
2022/01/26 04:26:18;;;;;;;17.80;10.90;;;;;;;2.81;87.75;100965.10;130590;1267;108816;-82
2022/01/26 04:29:27;;;;;;;20.40;11.60;;;;;;;2.77;87.74;100970.09;130675;1267;107592;-82
2022/01/26 04:32:32;;;;;;;21.40;13.10;;;;;;;2.80;87.93;100968.88;130698;1267;109198;-81
2022/01/26 04:35:42;;;;;;;20.10;12.90;;;;;;;2.87;88.16;100962.86;130650;1267;108860;-82
2022/01/26 04:38:52;;;;;;;20.10;12.00;;;;;;;2.93;88.02;100958.48;130499;1267;108234;-80
2022/01/26 04:42:01;;;;;;;26.10;15.20;;;;;;;2.92;87.69;100952.90;130435;1266;108731;-82
2022/01/26 04:45:10;;;;;;;24.60;13.90;;;;;;;2.86;87.79;100955.71;130836;1267;108658;-82
2022/01/26 04:48:15;;;;;;;23.90;13.10;;;;;;;2.84;87.94;100954.60;130489;1267;108699;-84
2022/01/26 04:51:21;;;;;;;22.50;13.50;;;;;;;2.89;88.11;100960.27;130505;1266;108558;-83
2022/01/26 04:54:26;;;;;;;35.30;22.10;;;;;;;2.94;87.92;100956.83;130528;1267;108643;-77
2022/01/26 04:57:31;;;;;;;29.20;17.40;;;;;;;2.97;87.81;100956.65;130431;1266;108681;-78
2022/01/26 05:00:37;;;;;;;22.20;13.00;;;;;;;3.00;87.87;100956.45;130515;1266;108787;-83
2022/01/26 05:03:42;;;;;;;20.60;12.80;;;;;;;2.97;87.66;100952.45;130497;1267;107828;-83
2022/01/26 05:06:48;;;;;;;29.90;16.50;;;;;;;2.86;87.78;100950.06;130456;1267;108802;-83
2022/01/26 05:09:53;;;;;;;20.60;12.10;;;;;;;2.80;87.95;100947.25;130556;1265;108858;-82
2022/01/26 05:12:58;;;;;;;19.40;11.80;;;;;;;2.80;87.97;100943.22;130589;1267;108949;-82
2022/01/26 05:16:06;;;;;;;25.90;15.50;;;;;;;2.79;87.94;100936.05;130770;1266;108934;-80
2022/01/26 05:19:11;;;;;;;23.70;13.80;;;;;;;2.83;88.14;100940.05;130650;1267;107360;-81
2022/01/26 05:22:17;;;;;;;26.80;15.60;;;;;;;2.84;87.93;100941.21;130504;1267;108673;-83
2022/01/26 05:25:22;;;;;;;24.40;15.20;;;;;;;2.84;88.08;100937.51;130425;1267;108777;-82
2022/01/26 05:28:27;;;;;;;21.00;12.50;;;;;;;2.83;88.00;100935.27;130478;1267;107984;-82
2022/01/26 05:31:33;;;;;;;20.20;12.00;;;;;;;2.83;87.96;100931.98;130462;1265;109734;-78
2022/01/26 05:34:38;;;;;;;21.10;15.00;;;;;;;2.86;87.87;100930.58;130434;1267;108854;-78
2022/01/26 05:37:43;;;;;;;20.00;12.10;;;;;;;2.87;87.74;100931.92;130475;1266;107851;-78
2022/01/26 05:40:50;;;;;;;24.50;15.60;;;;;;;2.86;87.79;100929.66;130449;1267;109002;-78
2022/01/26 05:43:55;;;;;;;25.30;15.70;;;;;;;2.88;87.88;100930.83;130524;1267;108690;-78
2022/01/26 05:47:00;;;;;;;20.50;13.70;;;;;;;2.89;87.69;100929.38;130479;1267;108878;-79
2022/01/26 05:50:07;;;;;;;34.60;22.50;;;;;;;2.90;87.92;100930.17;130445;1266;107557;-78
2022/01/26 05:53:12;;;;;;;34.90;19.60;;;;;;;2.90;87.66;100926.80;130411;1267;108550;-78
2022/01/26 05:56:18;;;;;;;29.70;16.60;;;;;;;2.93;87.72;100926.64;130491;1267;107437;-78
2022/01/26 05:59:23;;;;;;;30.10;17.80;;;;;;;2.96;87.69;100924.70;130502;1266;108676;-85
2022/01/26 06:02:30;;;;;;;37.20;22.70;;;;;;;2.99;87.69;100925.47;130459;1267;108959;-83
2022/01/26 06:05:36;;;;;;;86.30;48.80;;;;;;;3.02;87.63;100925.80;130604;1266;108708;-82
2022/01/26 06:08:41;;;;;;;89.60;49.40;;;;;;;3.02;87.50;100926.85;130533;1266;108759;-81
2022/01/26 06:11:46;;;;;;;41.40;24.20;;;;;;;3.01;87.56;100928.48;130498;1266;108831;-82
2022/01/26 06:14:52;;;;;;;38.00;21.60;;;;;;;3.01;87.47;100929.71;130481;1267;108686;-80
2022/01/26 06:17:57;;;;;;;60.90;34.80;;;;;;;3.06;87.58;100924.52;130428;1266;108918;-82
2022/01/26 06:21:03;;;;;;;87.80;50.60;;;;;;;3.13;87.57;100925.67;130490;1267;107496;-80
2022/01/26 06:24:09;;;;;;;109.70;64.80;;;;;;;3.20;87.30;100922.09;130408;1266;108821;-81
2022/01/26 06:27:14;;;;;;;67.60;38.30;;;;;;;3.22;87.37;100916.73;130489;1267;108638;-81
2022/01/26 06:30:20;;;;;;;57.90;35.50;;;;;;;3.24;87.11;100912.91;130633;1267;108792;-80
2022/01/26 06:33:26;;;;;;;47.80;27.70;;;;;;;3.22;87.11;100914.60;130463;1267;109051;-83
2022/01/26 06:36:31;;;;;;;208.90;96.10;;;;;;;3.20;87.11;100911.23;130419;1267;109405;-83
2022/01/26 06:39:38;;;;;;;183.30;96.80;;;;;;;3.20;87.24;100911.55;130426;1267;108888;-82
2022/01/26 06:42:52;;;;;;;50.00;28.50;;;;;;;3.25;87.38;100914.12;130460;1267;108782;-84
2022/01/26 06:45:59;;;;;;;34.60;20.80;;;;;;;3.28;87.01;100908.48;130414;1267;108806;-82
2022/01/26 06:52:29;;;;;;;31.80;20.70;;;;;;;3.22;87.18;100909.48;130402;1267;107620;-81
2022/01/26 06:55:36;;;;;;;34.10;19.50;;;;;;;3.21;86.99;100912.77;130531;1267;107332;-81
2022/01/26 06:58:41;;;;;;;25.30;15.40;;;;;;;3.17;86.96;100912.98;130349;1268;108727;-81
2022/01/26 07:01:47;;;;;;;27.00;15.20;;;;;;;3.05;87.08;100918.03;130251;1268;156892;-82
2022/01/26 07:04:52;;;;;;;23.90;14.70;;;;;;;3.04;87.39;100916.55;130429;1267;108904;-80
2022/01/26 07:07:57;;;;;;;27.90;15.30;;;;;;;3.08;87.35;100922.79;130262;1268;109456;-80
2022/01/26 07:11:03;;;;;;;30.80;17.90;;;;;;;3.12;87.26;100913.46;130267;1268;108959;-83
2022/01/26 07:14:10;;;;;;;33.90;21.00;;;;;;;3.15;87.13;100912.36;130359;1268;107443;-80
2022/01/26 07:24:02;;;;;;;35.60;19.10;;;;;;;3.14;87.25;100906.29;130336;1268;109700;-78
2022/01/26 07:27:09;;;;;;;35.80;19.20;;;;;;;3.13;87.12;100905.67;130233;1268;107654;-78
2022/01/26 07:30:15;;;;;;;131.60;73.10;;;;;;;3.16;87.15;100905.29;130590;1267;109021;-79
2022/01/26 07:33:20;;;;;;;30.80;17.70;;;;;;;3.21;87.23;100903.75;130444;1267;108702;-78
2022/01/26 07:36:27;;;;;;;46.50;27.30;;;;;;;3.21;86.96;100903.06;130489;1267;108745;-79
2022/01/26 07:39:42;;;;;;;89.00;45.30;;;;;;;3.17;86.93;100905.94;130361;1267;109551;-79
2022/01/26 07:42:48;;;;;;;28.10;17.40;;;;;;;3.13;87.04;100907.90;130379;1267;108793;-80
2022/01/26 07:45:53;;;;;;;59.20;28.20;;;;;;;3.15;87.29;100911.67;130380;1267;108708;-80
2022/01/26 07:48:59;;;;;;;46.50;24.10;;;;;;;3.18;87.10;100913.99;130567;1267;108636;-80
2022/01/26 07:52:05;;;;;;;52.80;26.30;;;;;;;3.25;87.02;100920.08;130763;1267;108517;-76
2022/01/26 07:55:16;;;;;;;30.30;17.80;;;;;;;3.25;86.68;100919.20;130340;1267;108687;-76
2022/01/26 07:58:21;;;;;;;76.00;40.40;;;;;;;3.25;86.71;100913.19;130333;1266;108943;-74
2022/01/26 08:01:27;;;;;;;73.70;35.40;;;;;;;3.34;87.05;100915.66;130471;1267;108698;-77
2022/01/26 08:04:32;;;;;;;104.50;49.00;;;;;;;3.38;86.62;100912.98;130710;1267;108677;-81
2022/01/26 08:07:38;;;;;;;84.10;42.60;;;;;;;3.39;86.49;100916.44;130736;1267;106661;-79
2022/01/26 08:10:44;;;;;;;116.10;54.20;;;;;;;3.48;86.79;100913.45;130406;1267;109378;-79
2022/01/26 08:13:49;;;;;;;106.70;55.10;;;;;;;3.63;86.75;100907.96;130495;1266;108667;-80
2022/01/26 08:16:54;;;;;;;130.60;78.70;;;;;;;3.76;86.49;100898.24;130439;1267;108724;-79
2022/01/26 08:20:00;;;;;;;51.40;29.90;;;;;;;3.89;86.53;100890.02;130606;1267;108731;-75
2022/01/26 08:23:06;;;;;;;46.90;26.80;;;;;;;4.05;86.38;100888.52;130331;1268;109515;-79
2022/01/26 08:26:11;;;;;;;19.70;10.80;;;;;;;4.13;85.67;100884.47;130407;1267;109129;-79
2022/01/26 08:29:21;;;;;;;21.50;12.20;;;;;;;4.15;85.22;100888.75;130349;1267;108742;-76
2022/01/26 08:32:27;;;;;;;21.40;9.60;;;;;;;4.09;85.02;100884.23;130272;1267;108480;-80
2022/01/26 08:35:32;;;;;;;16.30;9.00;;;;;;;4.01;84.72;100887.54;130319;1267;108859;-81
2022/01/26 08:38:38;;;;;;;25.00;14.00;;;;;;;4.02;85.48;100880.42;130354;1266;108732;-78
2022/01/26 08:41:45;;;;;;;110.90;49.50;;;;;;;4.14;85.19;100887.41;130373;1267;108755;-77
2022/01/26 08:44:50;;;;;;;19.30;11.50;;;;;;;4.20;85.08;100890.20;130548;1267;109758;-77
2022/01/26 08:47:56;;;;;;;16.30;9.90;;;;;;;4.24;85.18;100887.34;130376;1267;108687;-79
2022/01/26 08:51:01;;;;;;;18.10;9.90;;;;;;;4.18;83.99;100890.66;130693;1266;108740;-78
2022/01/26 08:54:10;;;;;;;17.30;8.70;;;;;;;4.06;84.46;100894.08;130653;1267;108948;-79
2022/01/26 08:57:16;;;;;;;14.00;7.60;;;;;;;4.05;84.79;100893.45;130571;1267;108743;-76
2022/01/26 09:00:21;;;;;;;16.40;9.40;;;;;;;4.04;84.97;100891.89;130421;1267;108933;-77
2022/01/26 09:03:27;;;;;;;11.40;7.40;;;;;;;4.09;85.17;100883.84;130381;1267;109138;-81
2022/01/26 09:06:33;;;;;;;43.20;19.90;;;;;;;4.24;85.14;100882.03;130527;1267;107417;-78
2022/01/26 09:09:43;;;;;;;33.10;19.60;;;;;;;4.45;85.35;100879.51;130488;1267;108791;-79
2022/01/26 09:12:50;;;;;;;20.80;11.70;;;;;;;4.63;85.04;100879.71;130338;1267;107669;-79
2022/01/26 09:15:55;;;;;;;14.70;8.90;;;;;;;4.75;84.72;100874.57;130400;1267;107362;-76
2022/01/26 09:19:07;;;;;;;15.30;8.30;;;;;;;4.76;83.77;100874.69;130256;1268;108679;-75
2022/01/26 09:22:15;;;;;;;13.70;8.00;;;;;;;4.67;84.11;100874.70;130256;1268;109746;-75
2022/01/26 09:25:20;;;;;;;15.00;9.20;;;;;;;4.70;84.14;100878.40;130490;1267;107727;-77
2022/01/26 09:28:26;;;;;;;15.70;8.60;;;;;;;4.74;84.73;100878.83;130438;1267;108878;-77
2022/01/26 09:31:31;;;;;;;12.60;7.20;;;;;;;4.87;84.23;100883.27;130378;1267;107816;-81
2022/01/26 09:34:37;;;;;;;14.20;7.10;;;;;;;4.75;82.50;100880.35;130446;1267;108635;-79
2022/01/26 09:37:43;;;;;;;13.40;7.60;;;;;;;4.65;83.87;100884.38;130338;1267;107149;-76
2022/01/26 09:40:50;;;;;;;16.10;9.20;;;;;;;4.59;83.44;100881.42;130556;1267;108883;-78
2022/01/26 09:43:57;;;;;;;18.70;9.20;;;;;;;4.53;83.78;100873.35;130460;1267;108949;-76
2022/01/26 09:47:03;;;;;;;490.10;214.70;;;;;;;4.47;83.67;100871.78;130409;1267;107420;-80
2022/01/26 09:50:09;;;;;;;342.60;121.30;;;;;;;4.47;84.26;100872.67;130443;1267;108697;-78
2022/01/26 09:53:20;;;;;;;328.70;119.00;;;;;;;4.48;84.48;100867.99;130488;1267;108853;-75
2022/01/26 09:56:25;;;;;;;394.00;139.90;;;;;;;4.50;84.45;100864.66;130345;1267;108695;-76
2022/01/26 09:59:32;;;;;;;181.40;67.10;;;;;;;4.59;84.80;100866.76;130512;1267;108877;-78
2022/01/26 10:02:39;;;;;;;228.20;96.10;;;;;;;4.66;84.33;100863.46;130408;1267;108635;-77
2022/01/26 10:05:48;;;;;;;218.10;105.00;;;;;;;4.72;84.44;100858.36;130402;1267;107626;-78
2022/01/26 10:09:03;;;;;;;81.10;42.30;;;;;;;4.81;84.44;100854.77;130398;1266;108989;-78
2022/01/26 10:15:35;;;;;;;34.50;18.90;;;;;;;4.87;84.26;100845.02;130415;1265;108819;-78
2022/01/26 10:18:41;;;;;;;79.70;41.60;;;;;;;4.81;84.23;100839.59;130343;1267;108624;-78
2022/01/26 10:21:51;;;;;;;22.90;14.80;;;;;;;4.79;84.55;100839.61;130331;1264;109216;-79
2022/01/26 10:25:10;;;;;;;29.60;19.50;;;;;;;4.78;84.28;100839.80;130442;1267;108750;-79
2022/01/26 10:28:18;;;;;;;19.50;13.50;;;;;;;4.85;84.63;100837.77;130364;1267;107673;-78
2022/01/26 10:31:26;;;;;;;18.30;12.10;;;;;;;4.94;84.61;100834.85;130366;1267;108898;-80
2022/01/26 10:34:31;;;;;;;22.40;15.50;;;;;;;4.96;84.19;100832.61;130326;1267;109147;-79
2022/01/26 10:37:40;;;;;;;25.30;15.60;;;;;;;4.93;84.24;100827.69;130471;1267;108657;-77
2022/01/26 10:40:45;;;;;;;14.60;9.50;;;;;;;4.91;84.34;100827.69;130549;1267;108914;-77
2022/01/26 10:43:54;;;;;;;20.90;13.90;;;;;;;4.83;84.15;100823.24;130412;1267;108964;-77
2022/01/26 10:47:03;;;;;;;36.60;24.20;;;;;;;4.81;84.20;100822.16;130605;1267;106769;-79
2022/01/26 10:50:46;;;;;;;23.50;16.10;;;;;;;4.85;84.36;100813.08;130497;1267;108621;-78
2022/01/26 10:54:08;;;;;;;20.30;13.00;;;;;;;4.94;84.35;100811.80;130470;1267;108920;-79
2022/01/26 10:57:14;;;;;;;16.10;10.40;;;;;;;4.99;84.13;100809.48;130335;1267;107666;-79
2022/01/26 11:00:20;;;;;;;18.30;12.60;;;;;;;4.99;84.31;100807.39;130414;1267;108654;-77
2022/01/26 11:03:26;;;;;;;10.60;7.20;;;;;;;5.04;84.26;100809.67;130604;1267;107417;-76
2022/01/26 11:06:32;;;;;;;12.80;8.90;;;;;;;5.04;83.90;100805.94;130298;1268;108409;-79
2022/01/26 11:09:40;;;;;;;16.40;11.00;;;;;;;4.97;83.69;100800.15;130266;1268;107789;-79
2022/01/26 11:12:46;;;;;;;8.80;6.40;;;;;;;4.95;84.13;100790.42;130224;1268;108589;-77
2022/01/26 11:15:51;;;;;;;15.30;9.60;;;;;;;4.97;84.04;100788.86;130222;1268;108980;-78
2022/01/26 11:18:58;;;;;;;12.00;7.20;;;;;;;5.01;84.20;100782.77;130309;1268;108937;-79
2022/01/26 11:22:10;;;;;;;17.20;11.20;;;;;;;5.09;84.00;100780.43;130506;1266;108846;-80
2022/01/26 11:25:17;;;;;;;10.50;7.00;;;;;;;5.14;84.03;100774.98;130531;1266;107047;-80
2022/01/26 11:28:24;;;;;;;12.40;8.80;;;;;;;5.15;84.09;100778.98;130515;1267;108805;-79
2022/01/26 11:31:33;;;;;;;12.50;7.90;;;;;;;5.18;84.14;100776.48;130404;1267;108971;-78
2022/01/26 11:34:39;;;;;;;24.50;17.10;;;;;;;5.21;83.95;100775.58;130443;1267;108607;-79
2022/01/26 11:37:48;;;;;;;32.70;20.60;;;;;;;5.19;83.92;100772.70;130450;1266;108710;-80
2022/01/26 11:47:45;;;;;;;215.70;96.60;;;;;;;5.22;83.98;100760.17;130506;1267;108876;-80
2022/01/26 11:51:00;;;;;;;276.50;128.40;;;;;;;5.21;84.18;100759.12;130586;1267;107735;-81
2022/01/26 11:54:13;;;;;;;309.40;152.90;;;;;;;5.27;84.06;100757.15;130354;1267;108739;-78
2022/01/26 11:57:22;;;;;;;111.90;56.40;;;;;;;5.23;83.89;100749.64;130522;1267;109000;-79
2022/01/26 12:00:44;;;;;;;147.10;79.50;;;;;;;5.15;84.25;100749.67;130753;1267;108617;-78
2022/01/26 12:04:01;;;;;;;161.80;74.10;;;;;;;5.09;84.32;100748.52;130471;1267;108857;-80
2022/01/26 12:07:21;;;;;;;24.90;13.50;;;;;;;5.07;84.51;100746.73;130436;1267;108822;-78
2022/01/26 12:10:29;;;;;;;124.80;58.80;;;;;;;4.97;84.45;100741.73;130457;1266;108773;-79
2022/01/26 12:13:38;;;;;;;21.40;11.80;;;;;;;4.94;84.79;100741.92;130558;1267;108608;-79
2022/01/26 12:16:48;;;;;;;21.00;13.40;;;;;;;4.91;84.71;100737.93;130524;1266;108882;-79
2022/01/26 12:34:30;;;;;;;12.80;9.30;;;;;;;4.82;85.26;100726.88;130471;1267;108815;-77
2022/01/26 12:37:52;;;;;;;17.50;12.70;;;;;;;4.86;85.34;100725.59;130420;1267;107421;-78
2022/01/26 12:41:22;;;;;;;14.80;9.50;;;;;;;4.85;85.41;100717.52;130424;1266;106814;-78
2022/01/26 12:44:27;;;;;;;15.40;8.90;;;;;;;4.82;85.31;100718.08;130437;1266;109726;-80
2022/01/26 12:47:33;;;;;;;17.90;11.00;;;;;;;4.75;85.30;100718.23;130568;1265;109035;-80
2022/01/26 12:50:41;;;;;;;16.60;10.00;;;;;;;4.66;85.41;100711.08;130666;1266;108916;-79
2022/01/26 12:53:51;;;;;;;18.40;11.10;;;;;;;4.66;85.67;100708.23;130683;1266;109029;-80
2022/01/26 12:57:06;;;;;;;20.90;12.20;;;;;;;4.69;85.79;100710.31;130812;1267;108588;-79
2022/01/26 13:00:13;;;;;;;23.20;15.30;;;;;;;4.73;85.84;100708.80;130549;1266;109834;-80
2022/01/26 13:03:23;;;;;;;64.00;35.20;;;;;;;4.71;86.13;100708.09;130610;1266;108693;-78
2022/01/26 13:06:31;;;;;;;37.80;22.00;;;;;;;4.68;86.14;100705.98;130647;1267;108899;-78
2022/01/26 13:09:42;;;;;;;54.70;31.00;;;;;;;4.65;86.24;100704.42;130450;1266;108885;-78
2022/01/26 13:12:47;;;;;;;32.40;19.30;;;;;;;4.65;86.50;100706.70;130566;1267;108788;-82
2022/01/26 13:16:04;;;;;;;49.80;32.50;;;;;;;4.65;86.57;100707.41;130532;1267;108743;-76
2022/01/26 13:22:55;;;;;;;27.40;16.30;;;;;;;4.69;86.55;100707.52;130530;1267;108846;-78
2022/01/26 13:26:15;;;;;;;21.10;12.40;;;;;;;4.65;86.93;100702.16;130697;1267;108833;-79
2022/01/26 13:29:38;;;;;;;19.90;13.20;;;;;;;4.61;86.73;100701.17;130704;1267;109568;-78
2022/01/26 13:33:25;;;;;;;29.10;17.50;;;;;;;4.63;87.03;100697.52;130468;1267;107785;-78
2022/01/26 13:40:22;;;;;;;55.30;28.10;;;;;;;4.54;87.34;100694.23;130376;1266;108766;-75
2022/01/26 13:47:20;;;;;;;36.40;20.80;;;;;;;4.53;87.51;100687.11;130565;1266;108669;-75
2022/01/26 13:50:31;;;;;;;46.90;27.70;;;;;;;4.50;88.12;100686.96;130452;1266;108666;-77
2022/01/26 13:53:47;;;;;;;23.10;15.40;;;;;;;4.49;87.87;100684.20;130443;1266;108753;-77
2022/01/26 13:57:09;;;;;;;22.90;12.70;;;;;;;4.44;88.08;100690.36;130330;1267;105662;-76
2022/01/26 14:00:20;;;;;;;18.40;10.90;;;;;;;4.34;88.41;100689.44;130475;1267;107952;-76
2022/01/26 14:03:29;;;;;;;23.60;13.20;;;;;;;4.33;88.13;100688.06;130739;1265;108515;-78
2022/01/26 14:06:35;;;;;;;27.50;17.10;;;;;;;4.39;88.08;100685.09;130500;1266;108521;-77
2022/01/26 14:09:41;;;;;;;57.40;30.60;;;;;;;4.43;88.21;100683.35;130455;1267;108743;-78
2022/01/26 14:12:48;;;;;;;36.10;17.20;;;;;;;4.42;88.20;100682.89;130607;1267;108714;-77
2022/01/26 14:15:57;;;;;;;13.50;8.90;;;;;;;4.43;88.11;100682.16;130612;1266;106884;-80
2022/01/26 14:19:08;;;;;;;28.30;15.40;;;;;;;4.45;88.03;100679.70;130384;1267;109554;-79
2022/01/26 14:22:34;;;;;;;27.50;14.90;;;;;;;4.51;88.11;100681.92;130390;1267;108499;-77
2022/01/26 14:25:41;;;;;;;149.20;69.60;;;;;;;4.45;88.42;100683.80;130618;1267;108589;-78
2022/01/26 14:28:46;;;;;;;314.40;139.00;;;;;;;4.39;87.96;100680.80;130549;1266;108759;-74
2022/01/26 14:35:24;;;;;;;27.70;15.10;;;;;;;4.38;88.33;100681.39;130464;1267;108886;-76
2022/01/26 14:53:15;;;;;;;75.50;35.50;;;;;;;4.40;88.25;100672.48;130515;1266;108828;-79
2022/01/26 14:56:16;;;;;;;50.20;26.70;;;;;;;4.41;88.55;100678.59;130526;1267;109067;-80
2022/01/26 15:10:36;;;;;;;27.30;15.50;;;;;;;4.20;89.32;100687.77;130377;1267;108872;-78
2022/01/26 15:30:45;;;;;;;29.40;18.90;;;;;;;4.00;89.84;100688.85;130496;1267;108680;-80
2022/01/26 15:34:03;;;;;;;42.60;22.60;;;;;;;3.97;89.73;100689.77;130514;1267;109757;-77
2022/01/26 15:40:46;;;;;;;48.30;24.90;;;;;;;3.87;89.75;100692.30;130569;1267;108814;-83
2022/01/26 15:44:06;;;;;;;45.20;22.20;;;;;;;3.88;89.87;100687.00;130636;1267;108717;-78
2022/01/26 15:50:44;;;;;;;39.60;25.30;;;;;;;3.93;89.59;100681.70;130564;1267;108822;-76
2022/01/26 15:57:28;;;;;;;26.80;14.70;;;;;;;4.01;89.30;100686.89;130400;1267;107703;-78
2022/01/26 16:07:24;;;;;;;49.10;26.80;;;;;;;4.05;89.01;100678.66;130737;1267;106815;-89
2022/01/26 16:21:12;;;;;;;46.20;24.70;;;;;;;3.96;89.19;100681.35;130033;1273;107532;-82
2022/01/26 16:38:02;;;;;;;21.50;13.70;;;;;;;3.84;89.02;100652.58;130566;1266;107322;-84
2022/01/26 17:12:08;;;;;;;18.40;13.30;;;;;;;4.11;88.10;100656.76;130394;1268;108785;-81
2022/01/26 18:13:14;;;;;;;16.20;11.00;;;;;;;3.52;87.72;100620.49;130413;1268;108687;-82
2022/01/26 18:16:28;;;;;;;58.40;31.80;;;;;;;3.50;87.65;100618.71;130467;1268;108589;-81
2022/01/26 18:26:30;;;;;;;67.50;34.70;;;;;;;3.75;87.73;100614.11;130256;1268;108774;-77
2022/01/26 18:33:02;;;;;;;58.60;34.50;;;;;;;3.69;87.91;100623.65;130325;1268;108794;-77
2022/01/26 18:49:58;;;;;;;264.80;130.00;;;;;;;3.51;87.36;100618.98;130259;1267;108878;-78
2022/01/26 18:53:04;;;;;;;24.80;15.50;;;;;;;3.44;87.41;100610.98;130479;1267;108801;-82
2022/01/26 18:56:12;;;;;;;57.00;31.60;;;;;;;3.45;87.33;100599.33;130309;1267;108848;-78
2022/01/26 18:59:18;;;;;;;52.90;29.20;;;;;;;3.43;87.30;100608.59;130247;1267;107341;-80
2022/01/26 19:02:25;;;;;;;25.20;17.40;;;;;;;3.47;87.30;100612.36;130396;1267;116298;-79
2022/01/26 19:05:31;;;;;;;18.70;11.40;;;;;;;3.46;86.88;100617.56;130467;1266;108800;-80